sensor_id;sensor_type;location;lat;lon;timestamp;P1;durP1;ratioP1;P2;durP2;ratioP2
45252;SDS011;63171;50.520;30.486;2023-06-14T00:00:06;9.92;;;6.82;;
45252;SDS011;63171;50.520;30.486;2023-06-14T00:02:48;8.56;;;5.02;;
45252;SDS011;63171;50.520;30.486;2023-06-14T00:03:39;7.64;;;5.34;;
45252;SDS011;63171;50.520;30.486;2023-06-14T00:04:29;5.38;;;4.88;;
45252;SDS011;63171;50.520;30.486;2023-06-14T00:05:19;6.56;;;5.38;;
45252;SDS011;63171;50.520;30.486;2023-06-14T00:06:09;5.95;;;4.82;;
45252;SDS011;63171;50.520;30.486;2023-06-14T00:07:00;6.80;;;4.84;;
45252;SDS011;63171;50.520;30.486;2023-06-14T00:07:52;7.57;;;4.75;;
45252;SDS011;63171;50.520;30.486;2023-06-14T00:08:42;8.54;;;4.40;;
45252;SDS011;63171;50.520;30.486;2023-06-14T00:09:32;5.15;;;4.20;;
45252;SDS011;63171;50.520;30.486;2023-06-14T00:10:23;8.94;;;5.06;;
45252;SDS011;63171;50.520;30.486;2023-06-14T00:11:13;7.25;;;5.25;;
45252;SDS011;63171;50.520;30.486;2023-06-14T00:12:04;7.50;;;4.98;;
45252;SDS011;63171;50.520;30.486;2023-06-14T00:12:55;5.60;;;5.02;;
45252;SDS011;63171;50.520;30.486;2023-06-14T00:13:45;9.56;;;5.40;;
45252;SDS011;63171;50.520;30.486;2023-06-14T00:15:26;7.70;;;4.82;;
45252;SDS011;63171;50.520;30.486;2023-06-14T00:16:16;10.50;;;5.78;;
45252;SDS011;63171;50.520;30.486;2023-06-14T00:17:07;5.78;;;5.28;;
45252;SDS011;63171;50.520;30.486;2023-06-14T00:17:56;7.13;;;5.03;;
45252;SDS011;63171;50.520;30.486;2023-06-14T00:18:49;10.32;;;5.72;;
45252;SDS011;63171;50.520;30.486;2023-06-14T00:19:41;6.12;;;5.34;;
45252;SDS011;63171;50.520;30.486;2023-06-14T00:20:32;8.50;;;6.40;;
45252;SDS011;63171;50.520;30.486;2023-06-14T00:21:22;7.04;;;5.96;;
45252;SDS011;63171;50.520;30.486;2023-06-14T00:22:13;7.68;;;5.52;;
45252;SDS011;63171;50.520;30.486;2023-06-14T00:23:04;7.95;;;5.63;;
45252;SDS011;63171;50.520;30.486;2023-06-14T00:23:55;7.60;;;6.32;;
45252;SDS011;63171;50.520;30.486;2023-06-14T00:24:45;9.73;;;6.15;;
45252;SDS011;63171;50.520;30.486;2023-06-14T00:25:35;9.36;;;7.30;;
45252;SDS011;63171;50.520;30.486;2023-06-14T00:26:25;6.22;;;5.63;;
45252;SDS011;63171;50.520;30.486;2023-06-14T00:27:16;9.78;;;6.02;;
45252;SDS011;63171;50.520;30.486;2023-06-14T00:28:07;6.40;;;5.80;;
45252;SDS011;63171;50.520;30.486;2023-06-14T00:28:58;8.32;;;5.54;;
45252;SDS011;63171;50.520;30.486;2023-06-14T00:29:49;6.48;;;5.96;;
45252;SDS011;63171;50.520;30.486;2023-06-14T00:30:40;7.42;;;6.12;;
45252;SDS011;63171;50.520;30.486;2023-06-14T00:31:29;7.53;;;5.75;;
45252;SDS011;63171;50.520;30.486;2023-06-14T00:32:20;7.06;;;5.78;;
45252;SDS011;63171;50.520;30.486;2023-06-14T00:33:14;6.54;;;5.46;;
45252;SDS011;63171;50.520;30.486;2023-06-14T00:34:06;5.88;;;5.38;;
45252;SDS011;63171;50.520;30.486;2023-06-14T00:34:56;6.40;;;5.53;;
45252;SDS011;63171;50.520;30.486;2023-06-14T00:35:46;5.62;;;5.12;;
45252;SDS011;63171;50.520;30.486;2023-06-14T00:36:36;8.60;;;5.60;;
45252;SDS011;63171;50.520;30.486;2023-06-14T00:37:27;9.32;;;5.92;;
45252;SDS011;63171;50.520;30.486;2023-06-14T00:38:18;5.30;;;4.80;;
45252;SDS011;63171;50.520;30.486;2023-06-14T00:39:09;5.74;;;5.24;;
45252;SDS011;63171;50.520;30.486;2023-06-14T00:39:59;8.20;;;5.47;;
45252;SDS011;63171;50.520;30.486;2023-06-14T00:40:50;6.48;;;5.88;;
45252;SDS011;63171;50.520;30.486;2023-06-14T00:41:40;5.90;;;5.15;;
45252;SDS011;63171;50.520;30.486;2023-06-14T00:42:30;8.36;;;5.84;;
45252;SDS011;63171;50.520;30.486;2023-06-14T00:43:20;7.05;;;6.03;;
45252;SDS011;63171;50.520;30.486;2023-06-14T00:44:11;8.30;;;6.34;;
45252;SDS011;63171;50.520;30.486;2023-06-14T00:45:04;6.24;;;4.68;;
45252;SDS011;63171;50.520;30.486;2023-06-14T00:45:56;6.18;;;5.68;;
45252;SDS011;63171;50.520;30.486;2023-06-14T00:46:46;7.45;;;5.43;;
45252;SDS011;63171;50.520;30.486;2023-06-14T00:47:38;5.72;;;4.82;;
45252;SDS011;63171;50.520;30.486;2023-06-14T00:48:29;6.02;;;5.32;;
45252;SDS011;63171;50.520;30.486;2023-06-14T00:49:20;7.76;;;5.26;;
45252;SDS011;63171;50.520;30.486;2023-06-14T00:50:10;6.15;;;5.22;;
45252;SDS011;63171;50.520;30.486;2023-06-14T00:51:01;8.84;;;5.90;;
45252;SDS011;63171;50.520;30.486;2023-06-14T00:51:53;8.20;;;5.92;;
45252;SDS011;63171;50.520;30.486;2023-06-14T00:52:43;7.78;;;5.93;;
45252;SDS011;63171;50.520;30.486;2023-06-14T00:53:35;6.12;;;5.52;;
45252;SDS011;63171;50.520;30.486;2023-06-14T00:54:25;8.08;;;6.00;;
45252;SDS011;63171;50.520;30.486;2023-06-14T00:55:15;7.00;;;5.34;;
45252;SDS011;63171;50.520;30.486;2023-06-14T00:56:05;5.85;;;5.05;;
45252;SDS011;63171;50.520;30.486;2023-06-14T00:56:56;6.22;;;4.56;;
45252;SDS011;63171;50.520;30.486;2023-06-14T00:57:46;5.20;;;4.70;;
45252;SDS011;63171;50.520;30.486;2023-06-14T00:58:37;6.14;;;5.48;;
45252;SDS011;63171;50.520;30.486;2023-06-14T00:59:27;6.65;;;5.22;;
45252;SDS011;63171;50.520;30.486;2023-06-14T01:00:18;6.48;;;5.48;;
45252;SDS011;63171;50.520;30.486;2023-06-14T01:01:07;6.97;;;5.65;;
45252;SDS011;63171;50.520;30.486;2023-06-14T01:01:58;8.54;;;6.74;;
45252;SDS011;63171;50.520;30.486;2023-06-14T01:02:48;5.97;;;5.38;;
45252;SDS011;63171;50.520;30.486;2023-06-14T01:03:39;8.78;;;5.58;;
45252;SDS011;63171;50.520;30.486;2023-06-14T01:04:30;6.22;;;5.38;;
45252;SDS011;63171;50.520;30.486;2023-06-14T01:05:21;7.40;;;4.88;;
45252;SDS011;63171;50.520;30.486;2023-06-14T01:06:15;5.82;;;5.28;;
45252;SDS011;63171;50.520;30.486;2023-06-14T01:07:18;6.84;;;4.68;;
45252;SDS011;63171;50.520;30.486;2023-06-14T01:08:28;5.76;;;4.74;;
45252;SDS011;63171;50.520;30.486;2023-06-14T01:09:37;5.90;;;4.90;;
45252;SDS011;63171;50.520;30.486;2023-06-14T01:10:38;6.78;;;6.06;;
45252;SDS011;63171;50.520;30.486;2023-06-14T01:11:37;6.88;;;6.18;;
45252;SDS011;63171;50.520;30.486;2023-06-14T01:12:31;7.12;;;5.88;;
45252;SDS011;63171;50.520;30.486;2023-06-14T01:13:32;7.00;;;6.32;;
45252;SDS011;63171;50.520;30.486;2023-06-14T01:14:23;6.18;;;5.16;;
45252;SDS011;63171;50.520;30.486;2023-06-14T01:15:16;5.70;;;5.20;;
45252;SDS011;63171;50.520;30.486;2023-06-14T01:16:08;5.78;;;5.22;;
45252;SDS011;63171;50.520;30.486;2023-06-14T01:16:59;5.70;;;5.16;;
45252;SDS011;63171;50.520;30.486;2023-06-14T01:17:50;7.94;;;6.48;;
45252;SDS011;63171;50.520;30.486;2023-06-14T01:18:40;20.62;;;6.12;;
45252;SDS011;63171;50.520;30.486;2023-06-14T01:19:36;16.50;;;7.34;;
45252;SDS011;63171;50.520;30.486;2023-06-14T01:20:27;9.73;;;8.75;;
45252;SDS011;63171;50.520;30.486;2023-06-14T01:21:20;10.44;;;8.12;;
45252;SDS011;63171;50.520;30.486;2023-06-14T01:22:13;7.20;;;6.60;;
45252;SDS011;63171;50.520;30.486;2023-06-14T01:23:06;6.94;;;6.18;;
45252;SDS011;63171;50.520;30.486;2023-06-14T01:23:56;7.28;;;6.52;;
45252;SDS011;63171;50.520;30.486;2023-06-14T01:24:49;7.70;;;6.14;;
45252;SDS011;63171;50.520;30.486;2023-06-14T01:25:41;9.22;;;6.06;;
45252;SDS011;63171;50.520;30.486;2023-06-14T01:26:34;7.08;;;6.32;;
45252;SDS011;63171;50.520;30.486;2023-06-14T01:27:27;12.98;;;5.38;;
45252;SDS011;63171;50.520;30.486;2023-06-14T01:28:19;8.18;;;5.00;;
45252;SDS011;63171;50.520;30.486;2023-06-14T01:29:09;6.88;;;5.08;;
45252;SDS011;63171;50.520;30.486;2023-06-14T01:30:00;5.56;;;5.06;;
45252;SDS011;63171;50.520;30.486;2023-06-14T01:30:52;9.02;;;5.00;;
45252;SDS011;63171;50.520;30.486;2023-06-14T01:31:44;8.72;;;5.66;;
45252;SDS011;63171;50.520;30.486;2023-06-14T01:32:35;6.14;;;5.30;;
45252;SDS011;63171;50.520;30.486;2023-06-14T01:33:27;7.38;;;5.86;;
45252;SDS011;63171;50.520;30.486;2023-06-14T01:34:21;5.72;;;5.06;;
45252;SDS011;63171;50.520;30.486;2023-06-14T01:35:14;7.70;;;5.86;;
45252;SDS011;63171;50.520;30.486;2023-06-14T01:36:04;5.72;;;5.15;;
45252;SDS011;63171;50.520;30.486;2023-06-14T01:36:57;6.46;;;5.14;;
45252;SDS011;63171;50.520;30.486;2023-06-14T01:37:49;6.32;;;4.32;;
45252;SDS011;63171;50.520;30.486;2023-06-14T01:38:43;5.36;;;4.86;;
45252;SDS011;63171;50.520;30.486;2023-06-14T01:39:34;6.70;;;5.24;;
45252;SDS011;63171;50.520;30.486;2023-06-14T01:40:25;5.04;;;4.58;;
45252;SDS011;63171;50.520;30.486;2023-06-14T01:41:16;10.40;;;5.74;;
45252;SDS011;63171;50.520;30.486;2023-06-14T01:42:08;8.76;;;5.22;;
45252;SDS011;63171;50.520;30.486;2023-06-14T01:43:00;8.10;;;5.22;;
45252;SDS011;63171;50.520;30.486;2023-06-14T01:43:52;5.88;;;5.06;;
45252;SDS011;63171;50.520;30.486;2023-06-14T01:44:45;10.34;;;4.66;;
45252;SDS011;63171;50.520;30.486;2023-06-14T01:45:36;6.04;;;5.18;;
45252;SDS011;63171;50.520;30.486;2023-06-14T01:46:29;5.40;;;4.90;;
45252;SDS011;63171;50.520;30.486;2023-06-14T01:47:19;5.47;;;4.93;;
45252;SDS011;63171;50.520;30.486;2023-06-14T01:48:11;7.20;;;4.88;;
45252;SDS011;63171;50.520;30.486;2023-06-14T01:49:03;7.92;;;4.80;;
45252;SDS011;63171;50.520;30.486;2023-06-14T01:49:56;9.88;;;5.36;;
45252;SDS011;63171;50.520;30.486;2023-06-14T01:50:46;7.38;;;5.78;;
45252;SDS011;63171;50.520;30.486;2023-06-14T01:51:38;8.90;;;4.90;;
45252;SDS011;63171;50.520;30.486;2023-06-14T01:52:28;11.00;;;4.38;;
45252;SDS011;63171;50.520;30.486;2023-06-14T01:53:18;8.13;;;4.78;;
45252;SDS011;63171;50.520;30.486;2023-06-14T01:54:10;4.98;;;4.56;;
45252;SDS011;63171;50.520;30.486;2023-06-14T01:55:01;9.00;;;5.34;;
45252;SDS011;63171;50.520;30.486;2023-06-14T01:55:52;5.14;;;4.68;;
45252;SDS011;63171;50.520;30.486;2023-06-14T01:56:44;4.36;;;3.92;;
45252;SDS011;63171;50.520;30.486;2023-06-14T01:57:34;6.72;;;5.46;;
45252;SDS011;63171;50.520;30.486;2023-06-14T01:58:25;6.10;;;5.40;;
45252;SDS011;63171;50.520;30.486;2023-06-14T01:59:16;7.98;;;5.20;;
45252;SDS011;63171;50.520;30.486;2023-06-14T02:00:07;11.06;;;5.78;;
45252;SDS011;63171;50.520;30.486;2023-06-14T02:01:02;9.18;;;5.56;;
45252;SDS011;63171;50.520;30.486;2023-06-14T02:01:52;5.50;;;4.88;;
45252;SDS011;63171;50.520;30.486;2023-06-14T02:02:43;7.20;;;5.64;;
45252;SDS011;63171;50.520;30.486;2023-06-14T02:03:33;7.60;;;5.70;;
45252;SDS011;63171;50.520;30.486;2023-06-14T02:04:27;8.18;;;5.00;;
45252;SDS011;63171;50.520;30.486;2023-06-14T02:05:16;12.40;;;5.63;;
45252;SDS011;63171;50.520;30.486;2023-06-14T02:06:08;9.08;;;6.04;;
45252;SDS011;63171;50.520;30.486;2023-06-14T02:06:57;5.50;;;4.93;;
45252;SDS011;63171;50.520;30.486;2023-06-14T02:07:48;12.76;;;5.40;;
45252;SDS011;63171;50.520;30.486;2023-06-14T02:08:41;7.86;;;5.20;;
45252;SDS011;63171;50.520;30.486;2023-06-14T02:09:32;9.14;;;5.24;;
45252;SDS011;63171;50.520;30.486;2023-06-14T02:10:22;9.92;;;5.40;;
45252;SDS011;63171;50.520;30.486;2023-06-14T02:11:13;7.66;;;5.56;;
45252;SDS011;63171;50.520;30.486;2023-06-14T02:12:03;6.85;;;5.25;;
45252;SDS011;63171;50.520;30.486;2023-06-14T02:12:54;7.12;;;4.92;;
45252;SDS011;63171;50.520;30.486;2023-06-14T02:13:44;7.40;;;5.18;;
45252;SDS011;63171;50.520;30.486;2023-06-14T02:14:35;10.42;;;4.52;;
45252;SDS011;63171;50.520;30.486;2023-06-14T02:15:25;4.97;;;4.50;;
45252;SDS011;63171;50.520;30.486;2023-06-14T02:16:16;8.94;;;8.06;;
45252;SDS011;63171;50.520;30.486;2023-06-14T02:17:07;7.32;;;6.56;;
45252;SDS011;63171;50.520;30.486;2023-06-14T02:17:57;11.95;;;7.28;;
45252;SDS011;63171;50.520;30.486;2023-06-14T02:18:47;9.20;;;5.22;;
45252;SDS011;63171;50.520;30.486;2023-06-14T02:19:37;6.90;;;5.30;;
45252;SDS011;63171;50.520;30.486;2023-06-14T02:20:27;4.95;;;4.55;;
45252;SDS011;63171;50.520;30.486;2023-06-14T02:21:19;6.18;;;5.58;;
45252;SDS011;63171;50.520;30.486;2023-06-14T02:22:09;6.18;;;5.57;;
45252;SDS011;63171;50.520;30.486;2023-06-14T02:23:00;5.92;;;5.38;;
45252;SDS011;63171;50.520;30.486;2023-06-14T02:24:42;6.54;;;5.22;;
45252;SDS011;63171;50.520;30.486;2023-06-14T02:25:32;8.56;;;5.90;;
45252;SDS011;63171;50.520;30.486;2023-06-14T02:26:22;8.32;;;5.16;;
45252;SDS011;63171;50.520;30.486;2023-06-14T02:27:12;5.18;;;4.68;;
45252;SDS011;63171;50.520;30.486;2023-06-14T02:28:03;10.04;;;5.54;;
45252;SDS011;63171;50.520;30.486;2023-06-14T02:28:55;8.90;;;5.28;;
45252;SDS011;63171;50.520;30.486;2023-06-14T02:29:45;11.56;;;6.38;;
45252;SDS011;63171;50.520;30.486;2023-06-14T02:30:35;7.07;;;5.50;;
45252;SDS011;63171;50.520;30.486;2023-06-14T02:31:25;6.38;;;5.20;;
45252;SDS011;63171;50.520;30.486;2023-06-14T02:32:16;5.68;;;5.14;;
45252;SDS011;63171;50.520;30.486;2023-06-14T02:33:06;9.45;;;5.68;;
45252;SDS011;63171;50.520;30.486;2023-06-14T02:33:57;6.04;;;4.72;;
45252;SDS011;63171;50.520;30.486;2023-06-14T02:34:47;6.13;;;5.13;;
45252;SDS011;63171;50.520;30.486;2023-06-14T02:35:39;7.22;;;4.76;;
45252;SDS011;63171;50.520;30.486;2023-06-14T02:36:30;5.64;;;4.94;;
45252;SDS011;63171;50.520;30.486;2023-06-14T02:37:19;8.93;;;4.97;;
45252;SDS011;63171;50.520;30.486;2023-06-14T02:38:10;7.42;;;5.08;;
45252;SDS011;63171;50.520;30.486;2023-06-14T02:39:01;8.24;;;4.76;;
45252;SDS011;63171;50.520;30.486;2023-06-14T02:39:52;5.70;;;5.10;;
45252;SDS011;63171;50.520;30.486;2023-06-14T02:40:43;6.64;;;4.76;;
45252;SDS011;63171;50.520;30.486;2023-06-14T02:41:32;5.50;;;5.00;;
45252;SDS011;63171;50.520;30.486;2023-06-14T02:42:23;7.24;;;5.34;;
45252;SDS011;63171;50.520;30.486;2023-06-14T02:43:13;6.05;;;5.40;;
45252;SDS011;63171;50.520;30.486;2023-06-14T02:44:04;7.18;;;4.96;;
45252;SDS011;63171;50.520;30.486;2023-06-14T02:44:55;6.08;;;5.06;;
45252;SDS011;63171;50.520;30.486;2023-06-14T02:45:45;7.70;;;5.20;;
45252;SDS011;63171;50.520;30.486;2023-06-14T02:46:37;7.78;;;4.52;;
45252;SDS011;63171;50.520;30.486;2023-06-14T02:47:26;6.72;;;5.38;;
45252;SDS011;63171;50.520;30.486;2023-06-14T02:48:17;9.30;;;5.08;;
45252;SDS011;63171;50.520;30.486;2023-06-14T02:49:06;9.95;;;5.18;;
45252;SDS011;63171;50.520;30.486;2023-06-14T02:49:57;9.84;;;5.22;;
45252;SDS011;63171;50.520;30.486;2023-06-14T02:50:47;7.28;;;5.07;;
45252;SDS011;63171;50.520;30.486;2023-06-14T02:51:37;6.42;;;5.12;;
45252;SDS011;63171;50.520;30.486;2023-06-14T02:52:28;5.60;;;4.57;;
45252;SDS011;63171;50.520;30.486;2023-06-14T02:53:18;7.12;;;5.72;;
45252;SDS011;63171;50.520;30.486;2023-06-14T02:54:08;12.20;;;7.93;;
45252;SDS011;63171;50.520;30.486;2023-06-14T02:55:03;8.18;;;6.32;;
45252;SDS011;63171;50.520;30.486;2023-06-14T02:55:53;12.10;;;6.96;;
45252;SDS011;63171;50.520;30.486;2023-06-14T02:56:44;10.98;;;6.60;;
45252;SDS011;63171;50.520;30.486;2023-06-14T02:57:34;6.63;;;6.00;;
45252;SDS011;63171;50.520;30.486;2023-06-14T02:58:25;7.92;;;6.28;;
45252;SDS011;63171;50.520;30.486;2023-06-14T02:59:15;6.78;;;6.10;;
45252;SDS011;63171;50.520;30.486;2023-06-14T03:00:06;9.58;;;5.38;;
45252;SDS011;63171;50.520;30.486;2023-06-14T03:01:01;8.76;;;5.26;;
45252;SDS011;63171;50.520;30.486;2023-06-14T03:01:53;8.62;;;5.28;;
45252;SDS011;63171;50.520;30.486;2023-06-14T03:02:43;6.78;;;5.25;;
45252;SDS011;63171;50.520;30.486;2023-06-14T03:03:34;5.30;;;4.80;;
45252;SDS011;63171;50.520;30.486;2023-06-14T03:04:24;10.32;;;5.60;;
45252;SDS011;63171;50.520;30.486;2023-06-14T03:05:16;8.94;;;4.38;;
45252;SDS011;63171;50.520;30.486;2023-06-14T03:06:10;9.92;;;5.20;;
45252;SDS011;63171;50.520;30.486;2023-06-14T03:07:02;7.42;;;4.44;;
45252;SDS011;63171;50.520;30.486;2023-06-14T03:07:58;6.62;;;5.34;;
45252;SDS011;63171;50.520;30.486;2023-06-14T03:08:50;11.48;;;5.10;;
45252;SDS011;63171;50.520;30.486;2023-06-14T03:09:44;5.68;;;5.12;;
45252;SDS011;63171;50.520;30.486;2023-06-14T03:10:37;7.00;;;4.90;;
45252;SDS011;63171;50.520;30.486;2023-06-14T03:11:29;5.90;;;4.64;;
45252;SDS011;63171;50.520;30.486;2023-06-14T03:12:21;5.94;;;4.16;;
45252;SDS011;63171;50.520;30.486;2023-06-14T03:13:10;9.02;;;4.95;;
45252;SDS011;63171;50.520;30.486;2023-06-14T03:14:01;5.44;;;4.94;;
45252;SDS011;63171;50.520;30.486;2023-06-14T03:14:53;6.02;;;5.14;;
45252;SDS011;63171;50.520;30.486;2023-06-14T03:15:47;7.66;;;4.46;;
45252;SDS011;63171;50.520;30.486;2023-06-14T03:16:39;9.88;;;5.22;;
45252;SDS011;63171;50.520;30.486;2023-06-14T03:17:32;7.56;;;4.96;;
45252;SDS011;63171;50.520;30.486;2023-06-14T03:18:24;8.28;;;5.00;;
45252;SDS011;63171;50.520;30.486;2023-06-14T03:19:16;8.76;;;5.80;;
45252;SDS011;63171;50.520;30.486;2023-06-14T03:20:06;6.13;;;5.05;;
45252;SDS011;63171;50.520;30.486;2023-06-14T03:20:58;8.64;;;5.34;;
45252;SDS011;63171;50.520;30.486;2023-06-14T03:21:49;5.20;;;4.70;;
45252;SDS011;63171;50.520;30.486;2023-06-14T03:22:39;7.28;;;4.22;;
45252;SDS011;63171;50.520;30.486;2023-06-14T03:23:30;6.80;;;4.50;;
45252;SDS011;63171;50.520;30.486;2023-06-14T03:24:20;8.04;;;5.08;;
45252;SDS011;63171;50.520;30.486;2023-06-14T03:25:10;10.35;;;4.88;;
45252;SDS011;63171;50.520;30.486;2023-06-14T03:26:04;7.40;;;4.64;;
45252;SDS011;63171;50.520;30.486;2023-06-14T03:26:54;7.72;;;4.40;;
45252;SDS011;63171;50.520;30.486;2023-06-14T03:27:46;7.28;;;4.66;;
45252;SDS011;63171;50.520;30.486;2023-06-14T03:29:26;5.35;;;4.85;;
45252;SDS011;63171;50.520;30.486;2023-06-14T03:30:16;6.10;;;4.28;;
45252;SDS011;63171;50.520;30.486;2023-06-14T03:31:11;7.96;;;5.32;;
45252;SDS011;63171;50.520;30.486;2023-06-14T03:32:02;7.75;;;4.30;;
45252;SDS011;63171;50.520;30.486;2023-06-14T03:32:59;6.84;;;5.14;;
45252;SDS011;63171;50.520;30.486;2023-06-14T03:33:51;6.94;;;4.46;;
45252;SDS011;63171;50.520;30.486;2023-06-14T03:34:43;7.44;;;4.58;;
45252;SDS011;63171;50.520;30.486;2023-06-14T03:35:39;6.04;;;4.02;;
45252;SDS011;63171;50.520;30.486;2023-06-14T03:36:31;7.40;;;4.76;;
45252;SDS011;63171;50.520;30.486;2023-06-14T03:37:22;5.00;;;4.46;;
45252;SDS011;63171;50.520;30.486;2023-06-14T03:38:12;5.60;;;4.97;;
45252;SDS011;63171;50.520;30.486;2023-06-14T03:39:03;7.16;;;4.66;;
45252;SDS011;63171;50.520;30.486;2023-06-14T03:39:53;6.32;;;3.80;;
45252;SDS011;63171;50.520;30.486;2023-06-14T03:40:47;6.02;;;4.26;;
45252;SDS011;63171;50.520;30.486;2023-06-14T03:41:37;9.52;;;4.18;;
45252;SDS011;63171;50.520;30.486;2023-06-14T03:42:28;6.30;;;4.14;;
45252;SDS011;63171;50.520;30.486;2023-06-14T03:43:18;8.07;;;4.85;;
45252;SDS011;63171;50.520;30.486;2023-06-14T03:44:09;6.80;;;4.26;;
45252;SDS011;63171;50.520;30.486;2023-06-14T03:44:58;5.20;;;4.70;;
45252;SDS011;63171;50.520;30.486;2023-06-14T03:45:50;7.75;;;4.78;;
45252;SDS011;63171;50.520;30.486;2023-06-14T03:46:41;8.23;;;4.68;;
45252;SDS011;63171;50.520;30.486;2023-06-14T03:47:31;7.05;;;4.35;;
45252;SDS011;63171;50.520;30.486;2023-06-14T03:48:22;6.78;;;4.25;;
45252;SDS011;63171;50.520;30.486;2023-06-14T03:49:13;5.15;;;4.05;;
45252;SDS011;63171;50.520;30.486;2023-06-14T03:50:03;7.80;;;4.50;;
45252;SDS011;63171;50.520;30.486;2023-06-14T03:50:55;8.16;;;4.76;;
45252;SDS011;63171;50.520;30.486;2023-06-14T03:52:42;6.35;;;5.40;;
45252;SDS011;63171;50.520;30.486;2023-06-14T03:53:32;7.70;;;4.95;;
45252;SDS011;63171;50.520;30.486;2023-06-14T03:54:26;8.92;;;6.32;;
45252;SDS011;63171;50.520;30.486;2023-06-14T03:55:17;9.50;;;8.50;;
45252;SDS011;63171;50.520;30.486;2023-06-14T03:56:08;8.86;;;7.88;;
45252;SDS011;63171;50.520;30.486;2023-06-14T03:57:05;12.68;;;9.27;;
45252;SDS011;63171;50.520;30.486;2023-06-14T03:57:56;10.32;;;8.63;;
45252;SDS011;63171;50.520;30.486;2023-06-14T03:58:46;7.75;;;6.88;;
45252;SDS011;63171;50.520;30.486;2023-06-14T03:59:37;6.63;;;6.03;;
45252;SDS011;63171;50.520;30.486;2023-06-14T04:00:27;6.47;;;5.88;;
45252;SDS011;63171;50.520;30.486;2023-06-14T04:01:18;7.97;;;5.65;;
45252;SDS011;63171;50.520;30.486;2023-06-14T04:02:08;4.80;;;4.25;;
45252;SDS011;63171;50.520;30.486;2023-06-14T04:02:59;8.25;;;4.22;;
45252;SDS011;63171;50.520;30.486;2023-06-14T04:03:50;5.68;;;4.30;;
45252;SDS011;63171;50.520;30.486;2023-06-14T04:04:40;11.63;;;4.85;;
45252;SDS011;63171;50.520;30.486;2023-06-14T04:05:33;5.95;;;4.93;;
45252;SDS011;63171;50.520;30.486;2023-06-14T04:06:25;4.68;;;4.15;;
45252;SDS011;63171;50.520;30.486;2023-06-14T04:07:21;5.07;;;3.95;;
45252;SDS011;63171;50.520;30.486;2023-06-14T04:08:12;4.05;;;3.65;;
45252;SDS011;63171;50.520;30.486;2023-06-14T04:09:03;10.25;;;5.35;;
45252;SDS011;63171;50.520;30.486;2023-06-14T04:09:56;5.63;;;4.00;;
45252;SDS011;63171;50.520;30.486;2023-06-14T04:10:46;5.78;;;3.92;;
45252;SDS011;63171;50.520;30.486;2023-06-14T04:11:37;6.53;;;4.18;;
45252;SDS011;63171;50.520;30.486;2023-06-14T04:12:29;7.80;;;4.70;;
45252;SDS011;63171;50.520;30.486;2023-06-14T04:13:19;5.97;;;4.20;;
45252;SDS011;63171;50.520;30.486;2023-06-14T04:14:09;8.38;;;5.03;;
45252;SDS011;63171;50.520;30.486;2023-06-14T04:15:01;6.05;;;4.22;;
45252;SDS011;63171;50.520;30.486;2023-06-14T04:15:53;11.65;;;5.00;;
45252;SDS011;63171;50.520;30.486;2023-06-14T04:16:49;8.32;;;5.22;;
45252;SDS011;63171;50.520;30.486;2023-06-14T04:17:42;9.65;;;5.00;;
45252;SDS011;63171;50.520;30.486;2023-06-14T04:18:33;22.70;;;5.20;;
45252;SDS011;63171;50.520;30.486;2023-06-14T04:20:32;4.60;;;3.78;;
45252;SDS011;63171;50.520;30.486;2023-06-14T04:21:23;5.35;;;3.75;;
45252;SDS011;63171;50.520;30.486;2023-06-14T04:22:16;5.93;;;4.00;;
45252;SDS011;63171;50.520;30.486;2023-06-14T04:23:12;5.00;;;4.20;;
45252;SDS011;63171;50.520;30.486;2023-06-14T04:24:04;7.10;;;4.32;;
45252;SDS011;63171;50.520;30.486;2023-06-14T04:24:56;9.40;;;4.30;;
45252;SDS011;63171;50.520;30.486;2023-06-14T04:25:48;5.13;;;3.97;;
45252;SDS011;63171;50.520;30.486;2023-06-14T04:26:39;5.55;;;3.85;;
45252;SDS011;63171;50.520;30.486;2023-06-14T04:27:35;7.10;;;4.30;;
45252;SDS011;63171;50.520;30.486;2023-06-14T04:28:26;8.70;;;4.72;;
45252;SDS011;63171;50.520;30.486;2023-06-14T04:29:18;5.43;;;4.18;;
45252;SDS011;63171;50.520;30.486;2023-06-14T04:30:15;8.15;;;4.00;;
45252;SDS011;63171;50.520;30.486;2023-06-14T04:31:11;6.75;;;5.03;;
45252;SDS011;63171;50.520;30.486;2023-06-14T04:32:02;8.15;;;3.70;;
45252;SDS011;63171;50.520;30.486;2023-06-14T04:32:53;4.47;;;4.07;;
45252;SDS011;63171;50.520;30.486;2023-06-14T04:33:45;9.02;;;4.57;;
45252;SDS011;63171;50.520;30.486;2023-06-14T04:34:40;6.47;;;4.32;;
45252;SDS011;63171;50.520;30.486;2023-06-14T04:35:31;8.27;;;4.28;;
45252;SDS011;63171;50.520;30.486;2023-06-14T04:36:21;5.72;;;4.88;;
45252;SDS011;63171;50.520;30.486;2023-06-14T04:37:13;6.53;;;4.35;;
45252;SDS011;63171;50.520;30.486;2023-06-14T04:38:04;5.72;;;4.35;;
45252;SDS011;63171;50.520;30.486;2023-06-14T04:38:58;4.80;;;4.40;;
45252;SDS011;63171;50.520;30.486;2023-06-14T04:39:50;5.70;;;4.30;;
45252;SDS011;63171;50.520;30.486;2023-06-14T04:40:41;7.82;;;4.75;;
45252;SDS011;63171;50.520;30.486;2023-06-14T04:41:33;12.90;;;4.68;;
45252;SDS011;63171;50.520;30.486;2023-06-14T04:42:25;5.07;;;3.92;;
45252;SDS011;63171;50.520;30.486;2023-06-14T04:43:22;5.30;;;4.80;;
45252;SDS011;63171;50.520;30.486;2023-06-14T04:44:15;6.00;;;4.55;;
45252;SDS011;63171;50.520;30.486;2023-06-14T04:45:08;6.82;;;3.72;;
45252;SDS011;63171;50.520;30.486;2023-06-14T04:46:01;5.97;;;3.83;;
45252;SDS011;63171;50.520;30.486;2023-06-14T04:46:53;7.05;;;3.63;;
45252;SDS011;63171;50.520;30.486;2023-06-14T04:47:46;5.72;;;3.72;;
45252;SDS011;63171;50.520;30.486;2023-06-14T04:48:35;5.03;;;3.78;;
45252;SDS011;63171;50.520;30.486;2023-06-14T04:49:26;7.63;;;4.03;;
45252;SDS011;63171;50.520;30.486;2023-06-14T04:51:07;7.50;;;4.13;;
45252;SDS011;63171;50.520;30.486;2023-06-14T04:52:52;4.88;;;3.50;;
45252;SDS011;63171;50.520;30.486;2023-06-14T04:53:43;12.02;;;4.22;;
45252;SDS011;63171;50.520;30.486;2023-06-14T04:54:34;7.20;;;3.85;;
45252;SDS011;63171;50.520;30.486;2023-06-14T04:55:26;4.47;;;4.00;;
45252;SDS011;63171;50.520;30.486;2023-06-14T04:56:17;6.43;;;4.30;;
45252;SDS011;63171;50.520;30.486;2023-06-14T04:57:07;5.72;;;4.50;;
45252;SDS011;63171;50.520;30.486;2023-06-14T04:57:58;4.60;;;3.40;;
45252;SDS011;63171;50.520;30.486;2023-06-14T04:58:51;6.43;;;3.50;;
45252;SDS011;63171;50.520;30.486;2023-06-14T04:59:43;6.68;;;3.88;;
45252;SDS011;63171;50.520;30.486;2023-06-14T05:00:33;6.57;;;4.25;;
45252;SDS011;63171;50.520;30.486;2023-06-14T05:01:23;6.90;;;4.13;;
45252;SDS011;63171;50.520;30.486;2023-06-14T05:02:13;8.10;;;4.47;;
45252;SDS011;63171;50.520;30.486;2023-06-14T05:03:04;9.77;;;4.32;;
45252;SDS011;63171;50.520;30.486;2023-06-14T05:03:55;4.95;;;4.45;;
45252;SDS011;63171;50.520;30.486;2023-06-14T05:04:46;6.50;;;3.83;;
45252;SDS011;63171;50.520;30.486;2023-06-14T05:05:37;4.45;;;4.05;;
45252;SDS011;63171;50.520;30.486;2023-06-14T05:06:26;7.05;;;3.83;;
45252;SDS011;63171;50.520;30.486;2023-06-14T05:07:17;5.65;;;4.38;;
45252;SDS011;63171;50.520;30.486;2023-06-14T05:08:07;6.13;;;3.97;;
45252;SDS011;63171;50.520;30.486;2023-06-14T05:08:58;8.18;;;4.32;;
45252;SDS011;63171;50.520;30.486;2023-06-14T05:09:48;5.82;;;3.88;;
45252;SDS011;63171;50.520;30.486;2023-06-14T05:10:39;5.78;;;4.43;;
45252;SDS011;63171;50.520;30.486;2023-06-14T05:11:28;10.80;;;4.95;;
45252;SDS011;63171;50.520;30.486;2023-06-14T05:12:19;8.25;;;3.80;;
45252;SDS011;63171;50.520;30.486;2023-06-14T05:13:09;10.90;;;4.65;;